Weather observations for the past three days for
Salida - Monarch Pass
Metric (Imperial)
Date Time (mdt) Wind (kph) Vis. (km) Weather Sky Cond. Temperature (ºC) Relative Humidity Wind Chill (°C) Heat Index (°C) Pressure Precipitation (cm)
Air Dwpt 6 hour altimeter (cm) sea level (mb) 1 hr 3 hr 6 hr
Max. Min.
03 12:55 W 28 G 57 16.09 Partly Cloudy SCT050 3 -9 41% -2 77.29 0.0
03 12:35 NW 43 G 65 16.09 Partly Cloudy and Windy SCT050 4 -9 39% -2 77.29 0.0
03 12:15 W 26 G 61 16.09 Partly Cloudy SCT050 3 -9 41% -2 77.32 0.0
03 11:55 NW 30 G 57 16.09 Partly Cloudy SCT048 3 -8 45% -2 77.32 0.0
03 11:35 W 28 G 57 16.09 Partly Cloudy SCT048 2 -8 48% -3 77.32 0.0
03 11:15 NW 50 G 59 16.09 Fair and Windy CLR 2 -9 44% -5 77.34 0.0
03 10:55 NW 44 G 63 16.09 Fair and Windy CLR 2 -9 44% -5 77.34 0.0
03 10:35 NW 54 G 67 16.09 Fair and Windy CLR 1 -8 51% -7 77.34 0.0
03 10:15 NW 69 G 78 16.09 Fair and Windy CLR 1 -8 51% -7 77.29 0.0
03 09:55 W 57 G 69 16.09 Fair and Windy CLR 1 -8 51% -7 77.32 0.0
03 09:36 NW 50 G 65 16.09 Fair and Windy CLR 1 -8 51% -6 77.34 0.0
03 09:15 NW 46 G 63 16.09 Fair and Windy CLR 0 -8 55% -7 77.32 0.0
03 08:55 W 43 G 50 16.09 Fair and Windy CLR 0 -8 55% -7 77.34 0.0
03 08:35 W 46 16.09 Fair and Windy CLR 0 -8 55% -7 77.34 0.0
03 08:15 W 43 16.09 Fair and Windy CLR -1 -8 59% -8 77.34 0.0
03 07:55 W 28 16.09 Fair CLR -1 -7 64% -7 77.34 0.0
03 07:35 W 30 16.09 Fair CLR -1 -8 59% -7 77.34 0.0
03 07:15 W 37 16.09 Fair and Breezy CLR -2 -8 64% -9 77.32 0.0
03 06:55 W 35 16.09 Fair and Breezy CLR -2 -8 64% -9 77.29 0.0
03 06:35 W 33 16.09 Fair and Breezy CLR -2 -8 64% -9 77.29 0.0
03 06:15 W 37 G 44 16.09 Fair and Breezy CLR -2 -8 64% -9 77.29 0.0
03 05:55 W 33 16.09 Fair and Breezy CLR -2 -8 64% -9 77.29 0.0
03 05:35 W 35 16.09 Fair and Breezy CLR -2 -8 64% -9 77.29 0.0
03 05:15 NW 39 16.09 Fair and Breezy CLR -2 -8 64% -9 77.29 0.0
03 04:55 NW 41 16.09 Fair and Breezy CLR -2 -8 64% -10 77.32 0.0
03 04:35 W 41 16.09 Fair and Breezy CLR -1 -8 59% -8 77.34 0.0
03 04:15 NW 39 16.09 Fair and Breezy CLR -1 -8 59% -8 77.34 0.0
03 03:55 W 39 16.09 Fair and Breezy CLR -1 -8 59% -8 77.34 0.0
03 03:35 W 39 16.09 Fair and Breezy CLR -1 -8 59% -8 77.34 0.0
03 03:15 W 35 G 43 16.09 Fair and Breezy CLR -1 -8 59% -8 77.37 0.0
03 02:55 W 35 16.09 Fair and Breezy CLR -1 -8 59% -8 77.37 0.0
03 02:35 W 31 16.09 Partly Cloudy SCT050 -1 -8 59% -7 77.37 0.0
03 02:15 W 35 16.09 Partly Cloudy and Breezy SCT050 0 -8 55% -7 77.39 0.0
03 01:55 NW 31 16.09 Fair CLR 0 -9 51% -6 77.39 0.0
03 01:35 W 31 16.09 Fair CLR 0 -8 55% -6 77.42 0.0
03 01:15 W 28 16.09 Fair CLR 0 -8 55% -6 77.42 0.0
03 00:55 W 26 16.09 Fair CLR 0 -8 55% -6 77.42 0.0
03 00:35 W 26 16.09 Fair CLR 0 -9 51% -6 77.42 0.0
03 00:15 W 22 16.09 Fair CLR 0 -8 55% -5 77.42 0.0
02 23:55 W 28 16.09 Fair CLR 0 -9 51% -6 77.42 0.0
02 23:35 W 24 16.09 Fair CLR 0 -8 55% -5 77.42 0.0
02 23:15 W 30 16.09 Fair CLR 0 -8 55% -6 77.42 0.0
02 22:55 W 30 16.09 Fair CLR 0 -7 60% -6 77.42 0.0
02 22:35 W 31 16.09 Fair CLR 0 -7 60% -6 77.42 0.0
02 22:15 W 31 16.09 Fair CLR 0 -7 60% -6 77.42 0.0
02 21:55 W 31 G 41 16.09 Fair CLR 0 -7 60% -6 77.42 0.0
02 21:35 W 26 16.09 Fair CLR 0 -7 60% -6 77.42 0.0
02 21:15 W 28 16.09 Fair CLR 0 -7 60% -6 77.42 0.0
02 20:55 W 28 16.09 Fair CLR 1 -7 56% -5 77.42 0.0
02 20:35 SW 28 16.09 Fair CLR 1 -8 51% -5 77.39 0.0
02 20:15 SW 30 16.09 Fair CLR 1 -7 56% -5 77.39 0.0
02 19:55 SW 22 16.09 Fair CLR 2 -7 52% -3 77.37 0.0
02 19:35 SW 22 16.09 Partly Cloudy SCT075 2 -7 52% -3 77.37 0.0
02 19:15 SW 20 16.09 Mostly Cloudy BKN075 2 -6 56% -2 77.37 0.0
02 18:55 SW 33 G 43 16.09 Overcast and Breezy OVC075 3 -7 48% -2 77.37 0.0
02 18:35 SW 20 G 37 16.09 Overcast BKN075 OVC085 5 -7 42% 1 77.37 0.0
02 17:55 SW 22 G 33 16.09 Overcast OVC075 5 -10 33% 1 77.37 0.0
02 17:35 SW 20 G 30 16.09 Overcast OVC075 6 -11 29% 3 77.37 0.0
02 17:15 SE 6 16.09 Overcast OVC075 5 -11 31% 77.37 0.0
02 16:55 NW 17 G 26 16.09 Mostly Cloudy BKN075 7 -10 29% 4 77.37 0.0
02 16:35 Calm 16.09 Fair CLR 5 -13 26% 77.37 0.0
02 16:15 SW 13 16.09 Partly Cloudy SCT047 6 -10 31% 4 77.39 0.0
02 15:55 W 11 16.09 Mostly Cloudy SCT047 BKN055 BKN065 4 -12 30% 2 77.39 0.0
02 15:35 NW 20 G 26 16.09 Overcast OVC065 6 -10 31% 3 77.42 0.0
02 15:15 S 9 16.09 Overcast BKN065 OVC080 5 -11 31% 3 77.42 0.0
02 14:55 N 7 16.09 Overcast BKN065 OVC080 5 -11 31% 4 77.44 0.0
02 14:35 S 6 16.09 Mostly Cloudy BKN065 5 -10 33% 77.44 0.0
02 14:15 SW 24 G 31 16.09 Partly Cloudy SCT065 5 -10 33% 1 77.44 0.0
02 13:55 NW 9 16.09 Mostly Cloudy BKN065 5 -8 39% 3 77.47 0.0
02 13:35 W 19 G 30 16.09 Partly Cloudy SCT065 5 -8 39% 2 77.44 0.0
02 13:15 NW 15 16.09 Partly Cloudy SCT050 2 -10 41% -2 77.47 0.0
02 12:55 W 19 16.09 Partly Cloudy SCT055 3 -8 45% -1 77.47 0.0
02 12:35 W 17 16.09 Fair CLR 1 -10 44% -3 77.47 0.0
02 12:15 N 7 16.09 Fair CLR 1 -11 41% -1 77.5 0.0
02 11:55 NW 13 16.09 Fair CLR 1 -10 44% -2 77.5 0.0
02 11:35 N 6 16.09 Fair CLR 0 -10 47% 77.5 0.0
02 11:15 N 7 16.09 Fair CLR 0 -10 47% -2 77.5 0.0
02 10:55 NW 6 16.09 Fair CLR 0 -10 47% 77.5 0.0
02 10:35 NW 6 16.09 Fair CLR -1 -10 51% 77.5 0.0
02 10:15 W 9 16.09 Fair CLR -1 -10 51% -4 77.47 0.0
02 09:55 W 7 16.09 Fair CLR -1 -9 55% -3 77.47 0.0
02 09:35 NW 9 G 17 16.09 Fair CLR -2 -9 59% -5 77.47 0.0
02 09:15 W 17 16.09 Fair CLR -2 -8 64% -7 77.44 0.0
02 08:55 W 17 16.09 Fair CLR -2 -9 59% -7 77.42 0.0
02 08:35 SW 17 16.09 Fair CLR -3 -9 64% -8 77.42 0.0
02 08:15 W 17 16.09 Fair CLR -3 -9 64% -8 77.42 0.0
02 07:55 W 15 16.09 Fair CLR -4 -9 69% -9 77.39 0.0
02 07:35 W 13 16.09 Fair CLR -5 -9 74% -10 77.39 0.0
02 07:15 W 13 16.09 Fair CLR -5 -10 68% -10 77.37 0.0
02 06:55 W 15 16.09 Fair CLR -5 -10 68% -10 77.37 0.0
02 06:35 W 15 16.09 Fair CLR -5 -10 68% -10 77.34 0.0
02 06:15 W 13 16.09 Fair CLR -5 -11 63% -10 77.34 0.0
02 05:55 W 13 16.09 Fair CLR -5 -11 63% -10 77.34 0.0
02 05:35 SW 7 16.09 Fair CLR -4 -12 54% -7 77.34 0.0
02 05:15 Calm 16.09 Fair CLR -4 -12 54% 77.34 0.0
02 04:55 E 9 0.00 Fair CLR -5 -11 63% -9 77.34 0.0
02 04:35 E 11 0.00 Fair CLR -5 -11 63% -9 77.34 0.0
02 04:15 E 11 0.00 Fair CLR -5 -11 63% -9 77.34 0.0
02 03:55 E 15 0.00 Fair CLR -5 -10 68% -10 77.32 0.0
02 03:35 E 13 0.00 Fair CLR -5 -10 68% -10 77.32 0.0
02 03:15 E 11 0.00 Fair CLR -5 -10 68% -9 77.32 0.0
02 02:55 E 9 0.00 Fair CLR -5 -10 68% -9 77.32 0.0
02 02:35 S 7 0.00 NULL NULL -5 -7 86% -8 77.32 0.0
02 02:15 SW 7 0.00 NULL NULL -6 -6 100% -9 77.34 0.0
02 01:55 S 7 0.00 NULL NULL -6 -6 100% -9 77.34 0.0
02 01:35 E 9 0.00 NULL NULL -5 -6 93% -9 77.34 0.0
02 01:15 E 15 0.00 NULL NULL -5 -6 93% -10 77.34 0.0
02 00:55 E 24 0.00 Overcast BKN005 BKN010 OVC050 -5 -5 100% -12 77.29 0.0
02 00:35 E 22 0.00 NULL NULL -5 -5 100% -11 77.29 0.0
02 00:16 E 20 0.00 Mostly Cloudy BKN002 BKN050 -5 -5 100% -11 77.29 0.0
01 23:55 E 24 0.00 Overcast BKN002 OVC050 -5 -5 100% -12 77.29 0.0
01 23:35 E 30 0.00 Overcast BKN002 BKN006 OVC050 -5 -5 100% -12 77.27 0.0
01 23:16 E 30 0.00 Overcast OVC002 -5 -5 100% -12 77.27 0.0
01 22:55 E 33 0.00 Overcast and Breezy OVC001 -5 -5 100% -13 77.24 0.0
01 22:35 E 39 0.00 Overcast and Breezy BKN003 BKN006 OVC015 -4 -5 93% -12 77.24 0.0
01 22:15 E 37 0.00 Breezy NULL -4 -5 93% -12 77.24 0.0
01 21:55 E 37 0.00 Overcast and Breezy BKN007 BKN014 OVC018 -4 -5 93% -12 77.24 0.0
01 21:35 E 39 0.00 Breezy NULL -4 -5 93% -12 77.19 0.0
01 21:15 E 41 0.00 Breezy NULL -4 -5 93% -12 77.19 0.0
01 20:55 E 43 G 52 0.00 Windy NULL -3 -5 86% -11 77.14 0.0
01 20:35 E 41 0.00 Breezy NULL -3 -6 80% -11 77.11 0.0
01 20:15 E 44 0.00 Mostly Cloudy and Windy SCT022 BKN031 BKN036 -3 -7 74% -11 77.11 0.0
01 19:55 E 37 0.00 Mostly Cloudy and Breezy SCT022 BKN032 BKN042 -3 -6 80% -11 77.11 0.0
01 19:15 E 46 G 61 0.00 Partly Cloudy and Windy SCT034 -2 -7 69% -10 77.01 0.0
01 18:55 E 50 0.00 Fair and Windy CLR -2 -8 64% -10 76.99 0.0
01 18:35 E 52 0.00 Fair and Windy CLR -2 -9 59% -10 76.96 0.0
01 18:15 E 41 G 50 0.00 Fair and Breezy CLR -2 -10 55% -10 77.01 0.0
01 17:55 E 41 G 46 0.00 Fair and Breezy CLR -2 -10 55% -10 77.01 0.0
01 17:35 E 41 G 52 0.00 Fair and Breezy CLR -2 -10 55% -10 76.99 0.0
01 17:15 E 41 0.00 Fair and Breezy CLR -2 -9 59% -10 76.99 0.0
01 16:55 E 39 G 54 0.00 Fair and Breezy CLR -2 -7 69% -9 76.99 0.0
01 16:35 E 35 0.00 Fair and Breezy CLR -2 -7 69% -9 76.99 0.0
01 16:15 E 39 0.00 Breezy NULL -3 -4 93% -11 76.99 0.0
01 15:55 E 33 0.00 Breezy NULL -3 -4 93% -10 76.99 0.0
01 15:35 E 37 0.00 Breezy NULL -3 -4 93% -11 76.99 0.0
01 15:15 E 39 0.00 Breezy NULL -3 -3 100% -11 77.01 0.0
01 14:55 E 33 0.00 Breezy NULL -3 -3 100% -10 77.01 0.0
01 14:35 E 35 0.00 Breezy NULL -3 -3 100% -10 77.01 0.0
01 14:15 E 37 0.00 Breezy NULL -3 -3 100% -11 77.01 0.0
01 13:55 Calm 0.00 NULL NULL -4 -4 100% 77.01 0.0
01 13:35 Calm 0.00 NULL NULL -3 -3 100% 76.99 0.0
01 13:15 Calm 0.00 NULL NULL -4 -4 100% 76.99 0.0
01 12:55 Calm 0.00 NULL NULL -4 -4 100% 76.99 0.0
01 12:35 Calm 0.00 NULL NULL -4 -4 100% 76.99 0.0
01 12:15 Calm 0.00 NULL NULL -5 -5 100% 76.99 0.0
01 11:55 Calm 0.00 NULL NULL -4 -5 93% 77.01 0.0
01 11:36 Calm 0.00 Overcast BKN002 OVC006 -4 -5 93% 77.01 0.0
01 11:15 Calm 0.00 Overcast BKN002 OVC006 -5 -5 100% 77.01 0.0
01 10:55 Calm 0.00 Overcast BKN002 OVC006 -5 -5 100% 76.99 0.0
01 10:35 Calm 0.00 Overcast BKN002 OVC005 -5 -5 100% 76.99 0.0
01 10:15 Calm 0.00 Overcast OVC002 -5 -5 100% 76.99 0.0
01 09:55 Calm 0.00 Overcast OVC002 -5 -5 100% 76.96 0.0
01 09:35 Calm 0.00 Overcast OVC002 -5 -5 100% 76.96 0.0
01 09:15 Calm 0.00 Overcast OVC002 -5 -6 93% 76.96 0.0
01 08:55 Calm 0.00 Overcast BKN002 OVC005 -6 -6 100% 76.94 0.0
01 08:35 Calm 0.00 Overcast OVC002 -6 -7 93% 76.91 0.0
01 08:15 Calm 0.00 Overcast OVC002 -6 -7 93% 76.91 0.0
01 07:55 Calm 0.00 Overcast OVC002 -6 -7 93% 76.91 0.0
01 07:35 Calm 0.00 Overcast OVC002 -7 -7 100% 76.89 0.0
01 07:15 Calm 0.00 Overcast OVC002 -7 -7 100% 76.89 0.0
01 06:55 Calm 0.00 Overcast OVC002 -7 -8 93% 76.89 0.0
01 06:35 Calm 0.00 Overcast OVC002 -7 -8 93% 76.86 0.0
01 06:15 Calm 0.00 Overcast OVC002 -7 -7 100% 76.86 0.0
01 05:55 Calm 0.00 Overcast OVC002 -7 -7 100% 76.84 0.0
01 05:35 Calm 0.00 Overcast OVC002 -7 -7 100% 76.84 0.0
01 05:15 Calm 0.00 Overcast OVC002 -7 -7 100% 76.84 0.0
01 04:55 Calm 0.00 Overcast OVC002 -7 -7 100% 76.84 0.0
01 04:35 Calm 0.00 Overcast OVC002 -7 -7 100% 76.84 0.0
01 04:15 Calm 0.00 Overcast OVC002 -7 -7 100% 76.84 0.0
01 03:55 Calm 0.00 Overcast OVC002 -6 -7 93% 76.84 0.0
01 03:35 Calm 0.00 Overcast OVC002 -7 -7 100% 76.84 0.0
01 03:15 E 37 0.00 Overcast and Breezy OVC002 -6 -7 93% -15 76.84 0.0
01 02:55 E 39 0.00 Overcast and Breezy OVC002 -6 -7 93% -15 76.84 0.0
01 02:35 E 37 0.00 Overcast and Breezy OVC002 -6 -7 93% -15 76.84 0.0
01 02:15 E 33 0.00 Overcast and Breezy OVC002 -6 -7 93% -14 76.86 0.0
01 01:55 E 35 0.00 Overcast and Breezy OVC002 -6 -7 93% -14 76.86 0.0
01 01:35 E 35 0.00 Overcast and Breezy OVC002 -6 -7 93% -14 76.86 0.0
01 01:15 Calm 0.00 Overcast OVC002 -6 -7 93% 76.89 0.0
01 00:55 E 39 0.00 Overcast and Breezy OVC002 -6 -7 93% -15 76.89 0.0
01 00:35 Calm 0.00 Overcast OVC002 -6 -6 100% 76.89 0.0
01 00:15 Calm 0.00 Overcast OVC002 -6 -6 100% 76.89 0.0
30 23:55 Calm 0.00 Overcast OVC002 -6 -6 100% 76.89 0.0
30 23:35 Calm 0.00 Overcast OVC002 -6 -6 100% 76.89 0.0
30 23:15 E 37 G 52 0.00 Overcast and Breezy OVC002 -6 -6 100% -15 76.89 0.0
30 22:55 E 35 G 41 0.00 Overcast and Breezy OVC002 -6 -6 100% -14 76.91 0.0
30 22:35 E 41 G 48 0.00 Overcast and Breezy OVC002 -5 -6 93% -14 76.89 0.0
30 22:15 E 37 0.00 Overcast and Breezy OVC002 -5 -6 93% -13 76.91 0.0
30 21:55 E 33 G 57 0.00 Overcast and Breezy OVC002 -5 -6 93% -13 76.91 0.0
30 21:35 Calm 0.00 Overcast OVC002 -5 -6 93% 76.86 0.0
30 21:15 Calm 0.00 Overcast OVC002 -6 -6 100% 76.86 0.0
30 20:55 Calm 0.00 Overcast OVC002 -5 -6 93% 76.81 0.0
30 20:35 Calm 0.00 Overcast OVC002 -5 -6 93% 76.84 0.0
30 20:15 Calm 0.00 Overcast OVC002 -5 -5 100% 76.84 0.0
30 19:55 Calm 0.00 Overcast OVC002 -5 -5 100% 76.81 0.0
30 19:35 Calm 0.00 Overcast OVC002 -5 -5 100% 76.78 0.0
30 19:15 Calm 0.00 Overcast OVC002 -5 -5 100% 76.78 0.0
30 18:55 Calm 0.00 Overcast OVC002 -5 -5 100% 76.76 0.0
30 18:35 Calm 0.00 Overcast OVC002 -4 -5 93% 76.78 0.0
30 18:15 Calm 0.00 Overcast OVC002 -5 -5 100% 76.78 0.0
30 17:55 Calm 0.00 Overcast OVC002 -5 -5 100% 76.76 0.0
30 17:35 Calm 0.00 Overcast OVC002 -5 -5 100% 76.73 0.0
30 17:15 Calm 0.00 Overcast OVC002 -4 -4 100% 76.71 0.0
30 16:55 Calm 0.24 Light Snow OVC002 -4 -4 100% 76.76 0.0
30 16:35 Calm 0.24 Freezing Fog OVC002 -3 -4 93% 76.76 0.0
30 16:15 Calm 0.24 Freezing Fog OVC002 -3 -3 100% 76.78 0.0
30 15:55 E 26 0.24 Freezing Fog OVC002 -3 -3 100% -9 76.76 0.0
30 15:35 E 19 0.24 Freezing Fog OVC002 -3 -3 100% -8 76.78 0.0
30 15:15 E 26 0.24 Freezing Fog OVC002 -3 -3 100% -9 76.78 0.0
30 14:55 E 17 0.24 Freezing Fog OVC002 -2 -2 100% -7 76.81 0.0
30 14:35 SE 7 0.24 Freezing Fog OVC002 -2 -2 100% -4 76.81 0.0
30 14:15 Calm 0.80 Freezing Fog BKN002 BKN020 OVC033 -2 -2 100% 76.81 0.0
30 13:55 NE 7 0.24 Freezing Fog OVC002 -2 -2 100% -4 76.81 0.0
30 13:35 N 11 11.27 Light Snow BKN004 BKN010 BKN022 -1 -1 100% -4 76.81 0.0
30 13:15 W 20 G 30 3.22 Light Snow OVC004 -2 -2 100% -7 76.84 0.0
Date Time (mdt) Wind (kph) Vis. (km) Weather Sky Cond. Air Dwpt Max. Min. Relative Humidity Wind Chill (°C) Heat Index (°C) altimeter (cm) sea level (mb) 1 hr 3 hr 6 hr
6 hour
Temperature (ºC) Pressure Precipitation (cm)